Time;durP1;ratioP1;P1;durP2;ratioP2;P2;SDS_P1;SDS_P2;PMS_P1;PMS_P2;Temp;Humidity;BMP_temperature;BMP_pressure;BME280_temperature;BME280_humidity;BME280_pressure;Samples;Min_cycle;Max_cycle;Signal;HPM_P1;HPM_P2
2022/08/25 00:01:17;;;;;;;12.90;8.13;;;18.20;99.90;;;;;;5112324;28;20040;-78
2022/08/25 00:03:44;;;;;;;17.17;8.00;;;18.20;99.90;;;;;;5112365;28;20024;-81
2022/08/25 00:06:10;;;;;;;19.38;8.23;;;18.20;99.90;;;;;;5112317;28;20023;-78
2022/08/25 00:08:37;;;;;;;19.70;8.40;;;18.30;99.90;;;;;;5112235;28;20472;-78
2022/08/25 00:11:05;;;;;;;18.33;7.68;;;18.20;99.90;;;;;;5113578;28;20031;-78
2022/08/25 00:13:31;;;;;;;18.92;7.43;;;18.20;99.90;;;;;;5112234;28;20492;-80
2022/08/25 00:15:57;;;;;;;17.35;7.57;;;18.20;99.90;;;;;;5113374;28;20035;-81
2022/08/25 00:18:23;;;;;;;14.52;7.97;;;18.10;99.90;;;;;;5113445;28;20031;-78
2022/08/25 00:20:49;;;;;;;16.08;7.32;;;18.10;99.90;;;;;;5112144;28;20019;-78
2022/08/25 00:23:15;;;;;;;14.82;6.90;;;18.10;99.90;;;;;;5112189;28;20027;-78
2022/08/25 00:25:40;;;;;;;15.65;7.25;;;18.10;99.90;;;;;;5112018;28;20047;-80
2022/08/25 00:28:06;;;;;;;11.80;7.25;;;18.10;99.90;;;;;;5113334;28;20099;-80
2022/08/25 00:30:32;;;;;;;21.83;7.57;;;18.10;99.90;;;;;;5111934;28;20031;-79
2022/08/25 00:32:58;;;;;;;15.13;8.07;;;18.10;99.90;;;;;;5113355;28;20020;-78
2022/08/25 00:35:25;;;;;;;17.80;7.70;;;18.10;99.90;;;;;;5112909;28;20403;-78
2022/08/25 00:37:50;;;;;;;20.23;7.63;;;18.10;99.90;;;;;;5113177;28;20023;-80
2022/08/25 00:40:16;;;;;;;15.68;8.25;;;18.10;99.90;;;;;;5113114;28;20024;-81
2022/08/25 00:42:42;;;;;;;20.85;8.05;;;18.10;99.90;;;;;;5112234;28;20492;-78
2022/08/25 00:45:08;;;;;;;14.88;7.32;;;18.10;99.90;;;;;;5113480;28;20015;-79
2022/08/25 00:47:35;;;;;;;17.48;8.57;;;18.10;99.90;;;;;;5111796;28;20412;-78
2022/08/25 00:50:04;;;;;;;14.60;7.43;;;18.10;99.90;;;;;;5111644;28;20126;-80
2022/08/25 00:52:44;;;;;;;12.52;7.53;;;18.00;99.90;;;;;;5113238;28;20028;-80
2022/08/25 00:55:22;;;;;;;14.82;6.80;;;18.00;99.90;;;;;;5111763;28;20441;-81
2022/08/25 00:57:59;;;;;;;14.30;7.40;;;17.90;99.90;;;;;;5111843;28;20469;-81
2022/08/25 01:00:31;;;;;;;20.70;7.72;;;17.90;99.90;;;;;;5111723;28;20047;-80
2022/08/25 01:02:57;;;;;;;19.52;7.57;;;18.00;99.90;;;;;;5113247;28;20061;-78
2022/08/25 01:05:25;;;;;;;25.70;9.27;;;18.00;99.90;;;;;;5113994;28;20015;-81
2022/08/25 01:07:51;;;;;;;19.85;9.63;;;18.00;99.90;;;;;;5115507;28;20028;-80
2022/08/25 01:10:20;;;;;;;23.92;8.43;;;18.00;99.90;;;;;;5116834;28;20024;-80
2022/08/25 01:12:46;;;;;;;18.70;7.85;;;18.00;99.90;;;;;;5116963;28;20023;-78
2022/08/25 01:15:13;;;;;;;20.08;7.97;;;18.00;99.90;;;;;;5115022;28;20039;-81
2022/08/25 01:17:52;;;;;;;14.52;7.25;;;18.00;99.90;;;;;;5115140;28;20404;-81
2022/08/25 01:20:21;;;;;;;13.80;7.13;;;18.00;99.90;;;;;;5115047;28;20016;-78
2022/08/25 01:22:49;;;;;;;16.13;6.50;;;18.00;99.90;;;;;;5116413;28;20023;-77
2022/08/25 01:25:59;;;;;;;23.50;8.32;;;18.00;99.90;;;;;;5116257;28;20040;-77
2022/08/25 01:28:25;;;;;;;17.75;7.90;;;18.00;99.90;;;;;;5116792;28;20020;-77
2022/08/25 01:30:51;;;;;;;15.68;8.55;;;18.00;99.90;;;;;;5114836;28;20082;-78
2022/08/25 01:33:17;;;;;;;22.42;8.25;;;18.00;99.90;;;;;;5116264;28;20385;-80
2022/08/25 01:35:44;;;;;;;22.17;8.07;;;18.00;99.90;;;;;;5116071;28;20032;-77
2022/08/25 01:38:10;;;;;;;20.20;7.53;;;17.90;99.90;;;;;;5116151;28;20043;-77
2022/08/25 01:40:38;;;;;;;15.70;7.70;;;18.00;99.90;;;;;;5114825;28;20011;-78
2022/08/25 01:43:10;;;;;;;16.70;8.23;;;18.00;99.90;;;;;;5114773;28;20042;-81
2022/08/25 01:45:38;;;;;;;20.00;8.15;;;18.00;99.90;;;;;;5115897;27;20046;-77
2022/08/25 01:48:06;;;;;;;17.67;7.50;;;18.00;99.90;;;;;;5114492;28;20024;-82
2022/08/25 01:50:32;;;;;;;17.20;8.07;;;18.00;99.90;;;;;;5115884;27;20060;-82
2022/08/25 01:53:06;;;;;;;23.80;8.70;;;18.00;99.90;;;;;;5116176;28;20065;-79
2022/08/25 01:55:50;;;;;;;23.58;8.50;;;18.00;99.90;;;;;;5115618;28;20032;-82
2022/08/25 01:58:17;;;;;;;18.85;7.82;;;18.10;99.90;;;;;;5114434;28;20016;-79
2022/08/25 02:00:48;;;;;;;17.70;7.57;;;18.10;99.90;;;;;;5114162;28;20381;-82
2022/08/25 02:03:14;;;;;;;17.50;7.10;;;18.10;99.90;;;;;;5114670;28;20024;-82
2022/08/25 02:05:40;;;;;;;20.30;7.88;;;18.10;99.90;;;;;;5114230;28;20362;-79
2022/08/25 02:08:05;;;;;;;25.55;9.20;;;18.10;99.90;;;;;;5114129;28;20031;-78
2022/08/25 02:10:32;;;;;;;17.48;8.05;;;18.10;99.90;;;;;;5115520;28;20052;-80
2022/08/25 02:12:58;;;;;;;15.10;7.20;;;18.00;99.90;;;;;;5115468;28;20027;-80
2022/08/25 02:15:23;;;;;;;20.63;7.47;;;18.10;99.90;;;;;;5113843;28;20036;-80
2022/08/25 02:17:49;;;;;;;17.85;8.10;;;18.10;99.90;;;;;;5115338;28;20043;-80
2022/08/25 02:20:15;;;;;;;20.45;7.53;;;18.10;99.90;;;;;;5115443;28;20016;-82
2022/08/25 02:22:41;;;;;;;18.90;7.35;;;18.10;99.90;;;;;;5113829;28;20028;-78
2022/08/25 02:25:07;;;;;;;25.75;8.23;;;18.20;99.90;;;;;;5113793;28;20016;-82
2022/08/25 02:27:32;;;;;;;21.88;8.35;;;18.20;99.90;;;;;;5114997;28;20026;-77
2022/08/25 02:29:58;;;;;;;21.65;7.53;;;18.20;99.90;;;;;;5113956;28;20020;-78
2022/08/25 02:32:24;;;;;;;20.13;8.55;;;18.30;99.90;;;;;;5113632;28;20054;-80
2022/08/25 02:34:50;;;;;;;20.35;8.45;;;18.30;99.90;;;;;;5113703;28;20538;-78
2022/08/25 02:37:16;;;;;;;18.33;8.52;;;18.40;99.90;;;;;;5113563;28;20366;-81
2022/08/25 02:39:41;;;;;;;14.20;7.70;;;18.40;99.90;;;;;;5115550;28;20069;-81
2022/08/25 02:42:07;;;;;;;19.40;6.85;;;18.40;99.90;;;;;;5114860;28;20062;-78
2022/08/25 02:44:33;;;;;;;15.45;6.72;;;18.30;99.90;;;;;;5113546;28;20030;-77
2022/08/25 02:46:58;;;;;;;19.58;7.35;;;18.30;99.90;;;;;;5114690;28;20019;-77
2022/08/25 02:49:24;;;;;;;15.85;7.65;;;18.30;99.90;;;;;;5114513;28;20058;-82
2022/08/25 02:51:50;;;;;;;20.42;7.32;;;18.30;99.90;;;;;;5114696;28;20099;-77
2022/08/25 02:54:16;;;;;;;26.45;8.63;;;18.30;99.90;;;;;;5113308;28;20069;-82
2022/08/25 02:56:42;;;;;;;24.50;9.20;;;18.30;99.90;;;;;;5114519;28;20040;-81
2022/08/25 02:59:07;;;;;;;26.48;8.95;;;18.30;99.90;;;;;;5114584;28;20027;-81
2022/08/25 03:01:33;;;;;;;21.98;8.10;;;18.40;99.90;;;;;;5113195;28;20392;-81
2022/08/25 03:04:00;;;;;;;24.52;8.95;;;18.30;99.90;;;;;;5114612;28;20032;-81
2022/08/25 03:06:26;;;;;;;21.08;8.57;;;18.40;99.90;;;;;;5114340;28;20016;-81
2022/08/25 03:08:53;;;;;;;22.13;8.48;;;18.40;99.90;;;;;;5113149;28;20028;-77
2022/08/25 03:11:19;;;;;;;25.38;8.20;;;18.40;99.90;;;;;;5113087;28;20473;-78
2022/08/25 03:13:45;;;;;;;22.10;8.30;;;18.40;99.90;;;;;;5114337;28;20050;-78
2022/08/25 03:16:11;;;;;;;23.75;8.55;;;18.40;99.90;;;;;;5114071;28;20059;-77
2022/08/25 03:18:38;;;;;;;17.65;8.05;;;18.50;99.90;;;;;;5112841;28;20122;-77
2022/08/25 03:21:03;;;;;;;19.10;8.70;;;18.50;99.90;;;;;;5114172;28;20020;-81
2022/08/25 03:23:29;;;;;;;21.63;9.20;;;18.40;99.90;;;;;;5112688;28;20039;-77
2022/08/25 03:28:40;;;;;;;23.30;8.40;;;18.50;99.90;;;;;;5113489;28;20038;-77
2022/08/25 03:31:07;;;;;;;18.08;8.15;;;18.50;99.90;;;;;;5112820;28;20030;-80
2022/08/25 03:33:33;;;;;;;19.30;7.28;;;18.50;99.90;;;;;;5112604;28;20024;-80
2022/08/25 03:35:58;;;;;;;21.73;7.88;;;18.50;99.90;;;;;;5112684;28;20034;-77
2022/08/25 03:38:25;;;;;;;25.20;7.90;;;18.50;99.90;;;;;;5112441;28;20104;-80
2022/08/25 03:40:52;;;;;;;20.30;7.68;;;18.50;99.90;;;;;;5114325;28;20023;-77
2022/08/25 03:43:18;;;;;;;24.40;8.70;;;18.50;99.90;;;;;;5113724;28;20016;-77
2022/08/25 03:45:46;;;;;;;23.67;7.78;;;18.40;99.90;;;;;;5114039;28;20034;-80
2022/08/25 03:48:13;;;;;;;16.42;8.45;;;18.50;99.90;;;;;;5113624;28;20385;-77
2022/08/25 03:50:47;;;;;;;18.83;7.45;;;18.50;99.90;;;;;;5112260;28;20568;-80
2022/08/25 03:53:12;;;;;;;15.38;6.78;;;18.50;99.90;;;;;;5113742;28;20023;-80
2022/08/25 03:55:39;;;;;;;16.38;7.82;;;18.40;99.90;;;;;;5113731;28;20485;-80
2022/08/25 03:58:05;;;;;;;17.88;7.30;;;18.40;99.90;;;;;;5113507;28;20461;-80
2022/08/25 04:00:31;;;;;;;22.00;8.07;;;18.50;99.90;;;;;;5113683;28;20068;-78
2022/08/25 04:02:56;;;;;;;15.80;8.32;;;18.50;99.90;;;;;;5112255;28;20107;-80
2022/08/25 04:05:22;;;;;;;18.48;8.02;;;18.50;99.90;;;;;;5113537;28;20104;-78
2022/08/25 04:07:48;;;;;;;26.70;9.68;;;18.50;99.90;;;;;;5112248;28;20027;-78
2022/08/25 04:10:14;;;;;;;21.52;8.25;;;18.50;99.90;;;;;;5113580;28;20038;-80
2022/08/25 04:12:40;;;;;;;20.25;7.97;;;18.50;99.90;;;;;;5113513;28;20110;-80
2022/08/25 04:15:07;;;;;;;24.58;9.57;;;18.50;99.90;;;;;;5112142;28;20024;-77
2022/08/25 04:17:37;;;;;;;19.73;8.38;;;18.50;99.90;;;;;;5111983;28;20031;-77
2022/08/25 04:20:03;;;;;;;18.38;7.75;;;18.60;99.90;;;;;;5113379;28;20088;-77
2022/08/25 04:22:30;;;;;;;18.88;7.82;;;18.60;99.90;;;;;;5113311;28;20412;-80
2022/08/25 04:24:58;;;;;;;21.77;8.30;;;18.70;99.90;;;;;;5113516;28;20048;-77
2022/08/25 04:27:23;;;;;;;21.05;7.60;;;18.60;99.90;;;;;;5113224;28;20020;-77
2022/08/25 04:29:49;;;;;;;19.88;8.43;;;18.70;99.90;;;;;;5113419;28;20085;-81
2022/08/25 04:32:14;;;;;;;28.30;9.18;;;18.70;99.90;;;;;;5112014;28;20028;-81
2022/08/25 04:34:42;;;;;;;22.40;7.75;;;18.80;99.90;;;;;;5113279;28;20054;-82
2022/08/25 04:37:07;;;;;;;21.52;8.10;;;18.80;99.90;;;;;;5111919;28;20051;-80
2022/08/25 04:39:34;;;;;;;22.10;8.07;;;18.80;99.90;;;;;;5114097;28;20040;-80
2022/08/25 04:42:00;;;;;;;18.65;8.13;;;18.80;99.90;;;;;;5116050;28;20020;-77
2022/08/25 04:44:26;;;;;;;27.20;9.05;;;18.90;99.90;;;;;;5117065;28;20027;-77
2022/08/25 04:46:51;;;;;;;16.63;9.35;;;18.90;99.90;;;;;;5117156;28;20103;-78
2022/08/25 04:49:18;;;;;;;18.27;7.72;;;19.00;99.90;;;;;;5115404;28;20063;-81
2022/08/25 04:51:44;;;;;;;18.65;7.88;;;19.10;99.90;;;;;;5117213;28;20473;-78
2022/08/25 04:54:15;;;;;;;23.85;9.20;;;19.10;99.90;;;;;;5115741;28;20027;-77
2022/08/25 04:56:42;;;;;;;21.27;7.80;;;19.20;99.90;;;;;;5117090;28;20034;-82
2022/08/25 04:59:14;;;;;;;19.25;8.70;;;19.30;99.90;;;;;;5116849;28;20106;-82
2022/08/25 05:01:41;;;;;;;;;;;19.40;99.90;;;;;;5117485;28;20016;-77
2022/08/25 05:04:09;;;;;;;16.10;8.20;;;19.40;99.90;;;;;;5116892;28;19957;-77
2022/08/25 05:06:36;;;;;;;21.98;7.50;;;19.50;99.90;;;;;;5116859;28;20031;-78
2022/08/25 05:09:03;;;;;;;14.57;7.53;;;19.60;99.90;;;;;;5116907;28;20020;-78
2022/08/25 05:11:29;;;;;;;18.52;6.70;;;19.80;99.90;;;;;;5115468;28;20122;-82
2022/08/25 05:13:56;;;;;;;13.60;7.03;;;19.90;99.90;;;;;;5115321;28;20376;-80
2022/08/25 05:16:24;;;;;;;23.30;7.55;;;20.00;99.90;;;;;;5114217;28;20517;-81
2022/08/25 05:18:50;;;;;;;20.30;7.82;;;20.10;99.90;;;;;;5114831;28;20028;-79
2022/08/25 05:21:23;;;;;;;14.18;6.82;;;20.20;99.90;;;;;;5114942;28;20020;-80
2022/08/25 05:23:48;;;;;;;16.90;7.28;;;20.40;99.90;;;;;;5116834;27;20030;-82
2022/08/25 05:26:21;;;;;;;19.33;8.15;;;20.40;99.90;;;;;;5136166;27;20023;-80
2022/08/25 05:28:49;;;;;;;18.38;6.65;;;20.50;99.90;;;;;;5136103;27;20384;-76
2022/08/25 05:31:16;;;;;;;20.13;7.38;;;20.60;99.90;;;;;;5136197;27;20076;-77
2022/08/25 05:33:42;;;;;;;31.42;7.00;;;20.60;99.90;;;;;;5130601;27;20015;-77
2022/08/25 05:36:09;;;;;;;16.90;7.47;;;20.60;99.90;;;;;;5114980;28;20055;-77
2022/08/25 05:38:36;;;;;;;21.13;6.75;;;20.60;99.90;;;;;;5115356;28;20027;-81
2022/08/25 05:41:05;;;;;;;20.10;6.55;;;20.70;99.90;;;;;;5112896;27;20476;-82
2022/08/25 05:43:32;;;;;;;21.42;7.30;;;20.70;99.90;;;;;;5101608;28;20024;-82
2022/08/25 05:45:58;;;;;;;20.02;6.63;;;20.60;99.90;;;;;;5094400;28;20385;-81
2022/08/25 05:48:25;;;;;;;23.55;6.85;;;20.60;99.90;;;;;;5102601;28;20028;-81
2022/08/25 05:50:56;;;;;;;22.23;6.38;;;20.70;99.90;;;;;;5114460;28;20040;-79
2022/08/25 05:53:23;;;;;;;19.10;6.85;;;20.80;99.90;;;;;;5114784;28;20473;-78
2022/08/25 05:55:51;;;;;;;27.30;6.75;;;21.00;99.90;;;;;;5114512;28;20028;-79
2022/08/25 05:58:17;;;;;;;26.77;7.93;;;21.20;99.90;;;;;;5113570;28;20060;-79
2022/08/25 06:00:43;;;;;;;21.20;7.30;;;21.30;99.90;;;;;;5114985;28;20052;-79
2022/08/25 06:03:09;;;;;;;19.08;7.28;;;21.40;99.90;;;;;;5114949;28;20038;-79
2022/08/25 06:05:35;;;;;;;19.58;7.50;;;21.50;99.90;;;;;;5114415;28;20098;-79
2022/08/25 06:08:01;;;;;;;21.88;6.07;;;21.50;99.90;;;;;;5114819;28;20069;-80
2022/08/25 06:10:26;;;;;;;21.88;7.00;;;21.60;99.90;;;;;;5114800;28;20020;-80
2022/08/25 06:12:52;;;;;;;21.35;6.47;;;21.80;99.90;;;;;;5114668;28;20457;-81
2022/08/25 06:15:21;;;;;;;18.73;7.03;;;21.80;99.90;;;;;;5113020;28;20039;-80
2022/08/25 06:17:49;;;;;;;24.40;7.05;;;21.90;99.90;;;;;;5108166;27;20016;-82
2022/08/25 06:20:22;;;;;;;13.13;5.95;;;21.90;99.90;;;;;;5107086;27;20097;-81
2022/08/25 06:22:49;;;;;;;24.42;7.40;;;22.00;99.90;;;;;;5101841;27;20020;-81
2022/08/25 06:25:18;;;;;;;25.10;7.20;;;22.10;99.90;;;;;;5124441;27;20372;-81
2022/08/25 06:27:45;;;;;;;23.88;7.35;;;22.10;99.90;;;;;;5127191;27;20536;-81
2022/08/25 06:30:13;;;;;;;27.88;7.10;;;22.20;99.90;;;;;;5131716;27;20026;-81
2022/08/25 06:32:41;;;;;;;19.50;7.20;;;22.30;99.90;;;;;;5132265;27;20023;-79
2022/08/25 06:35:10;;;;;;;27.25;7.32;;;22.30;99.90;;;;;;5120136;27;20082;-79
2022/08/25 06:37:37;;;;;;;26.05;7.35;;;22.40;99.90;;;;;;5132573;27;20024;-80
2022/08/25 06:40:04;;;;;;;26.02;7.10;;;22.50;99.90;;;;;;5132615;27;20039;-80
2022/08/25 06:42:31;;;;;;;28.65;7.35;;;22.50;99.90;;;;;;5132514;27;20437;-82
2022/08/25 06:44:56;;;;;;;20.77;7.03;;;22.60;99.90;;;;;;5132465;27;20027;-81
2022/08/25 06:47:22;;;;;;;23.38;6.15;;;22.70;99.90;;;;;;5131435;27;20531;-81
2022/08/25 06:49:47;;;;;;;23.40;6.72;;;22.80;99.90;;;;;;5129752;27;20050;-81
2022/08/25 06:52:13;;;;;;;20.00;6.03;;;22.90;99.90;;;;;;5116330;27;20028;-81
2022/08/25 06:54:40;;;;;;;27.70;7.47;;;22.90;99.90;;;;;;5117021;27;20036;-82
2022/08/25 06:57:07;;;;;;;29.48;6.75;;;23.10;99.90;;;;;;5110995;27;20063;-81
2022/08/25 06:59:33;;;;;;;19.77;5.85;;;23.30;99.90;;;;;;5116334;27;20031;-82
2022/08/25 07:02:00;;;;;;;20.88;7.03;;;23.50;99.90;;;;;;5131927;27;20464;-82
2022/08/25 07:04:26;;;;;;;18.55;6.88;;;23.60;99.90;;;;;;5130501;27;20114;-82
2022/08/25 07:06:52;;;;;;;30.20;6.30;;;23.70;99.90;;;;;;5133130;27;20106;-82
2022/08/25 07:09:18;;;;;;;22.98;7.00;;;23.80;99.90;;;;;;5132797;27;20538;-84
2022/08/25 07:11:44;;;;;;;23.90;6.47;;;23.80;99.90;;;;;;5131625;27;20043;-82
2022/08/25 07:14:12;;;;;;;29.50;7.53;;;23.90;99.90;;;;;;5132157;27;20035;-82
2022/08/25 07:16:38;;;;;;;23.40;6.78;;;23.90;99.90;;;;;;5126780;27;20046;-82
2022/08/25 07:19:05;;;;;;;23.40;6.57;;;23.80;99.90;;;;;;5118499;27;20032;-82
2022/08/25 07:21:36;;;;;;;25.52;7.43;;;23.90;99.90;;;;;;5132930;27;20019;-82
2022/08/25 07:24:09;;;;;;;21.00;6.72;;;24.10;99.90;;;;;;5127026;27;20098;-84
2022/08/25 07:26:35;;;;;;;20.58;6.40;;;24.30;99.90;;;;;;5133056;27;20537;-84
2022/08/25 07:29:05;;;;;;;20.15;6.70;;;24.40;99.90;;;;;;5097941;27;20527;-85
2022/08/25 07:31:31;;;;;;;24.77;7.20;;;24.50;99.90;;;;;;5132227;27;20029;-84
2022/08/25 07:36:41;;;;;;;18.55;6.82;;;24.60;99.90;;;;;;5120762;27;20088;-84
2022/08/25 07:39:07;;;;;;;27.77;7.43;;;24.60;99.90;;;;;;5112017;27;20589;-84
2022/08/25 07:41:36;;;;;;;26.48;7.75;;;24.60;99.90;;;;;;5111471;27;20094;-84
2022/08/25 07:44:03;;;;;;;23.55;7.82;;;24.80;99.90;;;;;;5115530;27;20115;-85
2022/08/25 07:46:29;;;;;;;22.90;6.50;;;24.80;99.90;;;;;;5131031;27;20035;-85
2022/08/25 07:48:54;;;;;;;23.55;6.80;;;24.90;99.90;;;;;;5129054;27;20053;-84
2022/08/25 07:51:20;;;;;;;29.90;8.20;;;25.10;99.90;;;;;;5132753;27;20035;-85
2022/08/25 07:53:45;;;;;;;30.13;6.57;;;25.30;99.90;;;;;;5118778;28;20043;-82
2022/08/25 07:56:14;;;;;;;15.88;6.43;;;25.40;99.90;;;;;;5132145;27;20051;-82
2022/08/25 07:58:40;;;;;;;20.45;7.10;;;25.50;99.90;;;;;;5130751;27;20020;-83
2022/08/25 08:01:07;;;;;;;26.38;6.82;;;25.60;99.90;;;;;;5130307;27;20035;-82
2022/08/25 08:03:33;;;;;;;24.65;6.47;;;25.70;99.90;;;;;;5132206;27;20046;-83
2022/08/25 08:06:00;;;;;;;23.45;7.63;;;25.80;99.90;;;;;;5132197;27;20031;-85
2022/08/25 08:08:26;;;;;;;23.40;7.68;;;25.90;99.90;;;;;;5130654;28;20030;-84
2022/08/25 08:10:52;;;;;;;27.58;6.97;;;25.90;99.90;;;;;;5131806;27;20031;-83
2022/08/25 08:13:18;;;;;;;24.42;7.30;;;26.10;99.90;;;;;;5132651;27;20029;-84
2022/08/25 08:15:45;;;;;;;24.33;7.13;;;26.00;99.90;;;;;;5130760;27;20058;-84
2022/08/25 08:18:10;;;;;;;29.10;7.43;;;26.00;99.90;;;;;;5106240;28;20020;-84
2022/08/25 08:20:36;;;;;;;26.02;6.95;;;26.20;99.90;;;;;;5104035;28;20028;-85
2022/08/25 08:23:02;;;;;;;27.42;8.63;;;26.20;99.90;;;;;;5110572;28;20373;-85
2022/08/25 08:25:28;;;;;;;23.00;6.40;;;26.30;99.90;;;;;;5131984;27;20027;-85
2022/08/25 08:27:55;;;;;;;30.50;7.95;;;26.30;99.90;;;;;;5135031;27;20490;-85
2022/08/25 08:30:21;;;;;;;28.45;7.20;;;26.40;99.90;;;;;;5119145;27;20039;-84
2022/08/25 08:32:48;;;;;;;27.63;7.18;;;26.30;99.90;;;;;;5103493;28;20085;-84
2022/08/25 08:35:17;;;;;;;27.88;7.57;;;26.40;99.90;;;;;;5104249;28;20046;-85
2022/08/25 08:37:44;;;;;;;31.48;8.95;;;26.50;99.90;;;;;;5105858;28;20039;-85
2022/08/25 08:40:13;;;;;;;31.20;7.47;;;26.50;99.90;;;;;;5094889;28;20024;-85
2022/08/25 08:42:51;;;;;;;26.88;7.53;;;26.60;99.90;;;;;;5095969;28;20024;-86
2022/08/25 08:45:33;;;;;;;25.75;7.95;;;26.80;99.90;;;;;;5094503;28;20027;-86
2022/08/25 08:48:09;;;;;;;25.15;6.78;;;26.80;99.90;;;;;;5095813;28;20469;-85
2022/08/25 08:51:14;;;;;;;26.75;7.63;;;26.90;99.90;;;;;;5095568;28;20058;-84
2022/08/25 08:53:46;;;;;;;29.83;8.05;;;26.80;99.90;;;;;;5063159;28;20070;-85
2022/08/25 08:56:17;;;;;;;;;;;26.80;99.90;;;;;;5114069;28;20062;-85
2022/08/25 08:58:57;;;;;;;29.13;7.70;;;26.80;99.90;;;;;;5114219;28;20356;-85
2022/08/25 09:01:29;;;;;;;18.00;6.35;;;26.80;99.90;;;;;;5098128;28;20024;-85
2022/08/25 09:04:08;;;;;;;19.58;6.90;;;26.90;99.90;;;;;;5094141;28;20077;-85
2022/08/25 09:06:46;;;;;;;24.98;7.00;;;27.10;99.90;;;;;;5093840;28;20031;-85
2022/08/25 09:09:25;;;;;;;26.45;6.60;;;27.20;99.90;;;;;;5094274;28;20044;-85
2022/08/25 09:12:19;;;;;;;21.85;6.82;;;27.40;99.90;;;;;;5095782;28;20016;-85
2022/08/25 09:16:53;;;;;;;24.20;7.75;;;27.40;96.00;;;;;;5095539;28;20028;-85
2022/08/25 09:18:25;;;;;;;26.48;8.27;;;27.40;99.30;;;;;;5098184;28;20035;-85
2022/08/25 09:21:15;;;;;;;24.85;6.85;;;27.40;92.20;;;;;;5115912;28;20128;-84
2022/08/25 09:24:14;;;;;;;25.50;6.95;;;27.30;85.00;;;;;;5103792;27;20031;-85
2022/08/25 09:27:08;;;;;;;25.52;7.20;;;27.40;82.70;;;;;;5104857;28;20380;-85
2022/08/25 09:29:59;;;;;;;28.98;6.93;;;27.60;85.60;;;;;;5111995;27;20039;-85
2022/08/25 09:32:29;;;;;;;28.10;6.63;;;27.60;84.70;;;;;;5127061;27;20071;-85
2022/08/25 09:34:55;;;;;;;23.08;6.50;;;27.60;81.70;;;;;;5134042;27;20039;-85
2022/08/25 09:37:22;;;;;;;33.25;6.90;;;27.60;81.60;;;;;;5134163;27;20155;-84
2022/08/25 09:39:48;;;;;;;19.90;7.53;;;27.60;78.40;;;;;;5130950;27;20031;-83
2022/08/25 09:42:14;;;;;;;23.48;7.78;;;27.40;79.40;;;;;;5133761;27;20031;-84
2022/08/25 09:44:43;;;;;;;27.08;9.05;;;27.40;78.30;;;;;;5132170;27;20492;-84
2022/08/25 09:47:22;;;;;;;24.63;7.93;;;27.40;86.00;;;;;;5134363;27;20099;-83
2022/08/25 09:50:15;;;;;;;23.77;7.97;;;27.40;82.30;;;;;;5133955;27;20047;-84
2022/08/25 09:52:43;;;;;;;30.60;8.93;;;27.20;84.80;;;;;;5134049;27;20365;-84
2022/08/25 09:55:14;;;;;;;27.13;9.18;;;27.00;86.30;;;;;;5131783;27;20031;-84
2022/08/25 09:57:44;;;;;;;32.47;9.30;;;26.80;88.70;;;;;;5124233;27;20102;-85
2022/08/25 10:00:14;;;;;;;21.05;10.25;;;26.80;92.10;;;;;;5134514;27;20043;-85
2022/08/25 10:02:41;;;;;;;28.92;9.48;;;26.80;94.60;;;;;;5133007;27;20069;-85
2022/08/25 10:05:23;;;;;;;33.90;9.82;;;26.70;96.10;;;;;;5121369;27;20039;-84
2022/08/25 10:07:56;;;;;;;25.27;9.55;;;26.80;98.70;;;;;;5135325;27;20380;-85
2022/08/25 10:10:32;;;;;;;21.05;9.95;;;26.80;96.20;;;;;;5134241;27;20019;-85
2022/08/25 10:12:59;;;;;;;25.83;9.25;;;26.80;98.10;;;;;;5133812;27;20098;-84
2022/08/25 10:15:34;;;;;;;29.88;9.20;;;26.80;95.80;;;;;;5134734;27;20030;-84
2022/08/25 10:18:24;;;;;;;26.42;9.38;;;26.60;97.50;;;;;;5131949;27;20022;-85
2022/08/25 10:21:06;;;;;;;27.25;9.60;;;26.90;97.30;;;;;;5114523;28;20031;-85
2022/08/25 10:23:35;;;;;;;23.67;9.88;;;27.20;93.90;;;;;;5114377;28;20110;-85
2022/08/25 10:26:07;;;;;;;23.20;8.95;;;27.20;96.90;;;;;;5113721;28;20020;-85
2022/08/25 10:28:41;;;;;;;21.83;9.15;;;27.20;89.00;;;;;;5107104;27;20024;-85
2022/08/25 10:31:36;;;;;;;25.88;9.20;;;27.20;91.70;;;;;;5114118;27;20015;-85
2022/08/25 10:34:50;;;;;;;26.27;10.02;;;27.20;89.30;;;;;;5116174;27;20487;-84
2022/08/25 10:37:27;;;;;;;25.73;8.50;;;27.30;91.20;;;;;;5125067;27;20089;-84
2022/08/25 10:40:08;;;;;;;27.95;8.95;;;27.40;90.20;;;;;;5131750;27;20031;-84
2022/08/25 10:42:55;;;;;;;24.08;9.05;;;27.40;91.60;;;;;;5131435;27;20034;-83
2022/08/25 10:45:43;;;;;;;23.42;7.88;;;27.50;91.80;;;;;;5127345;27;20066;-84
2022/08/25 10:48:46;;;;;;;26.05;8.77;;;27.60;86.10;;;;;;5112126;27;20214;-84
2022/08/25 10:51:47;;;;;;;18.60;7.47;;;27.70;87.90;;;;;;5096958;28;20039;-84
2022/08/25 10:54:25;;;;;;;21.75;7.50;;;27.70;82.70;;;;;;5128989;27;20736;-84
2022/08/25 10:57:03;;;;;;;20.23;7.78;;;27.70;84.00;;;;;;5114352;27;20556;-84
2022/08/25 10:59:48;;;;;;;23.38;7.30;;;27.80;85.00;;;;;;5102579;28;20052;-84
2022/08/25 11:02:16;;;;;;;17.77;7.32;;;27.80;85.20;;;;;;5101174;28;20040;-83
2022/08/25 11:04:58;;;;;;;23.05;8.35;;;27.80;85.30;;;;;;5093029;28;20016;-83
2022/08/25 11:07:37;;;;;;;21.45;8.05;;;27.80;88.00;;;;;;5092800;28;20157;-82
2022/08/25 11:10:17;;;;;;;27.23;9.15;;;27.90;82.70;;;;;;5092715;28;20095;-83
2022/08/25 11:12:53;;;;;;;21.65;7.72;;;27.90;82.20;;;;;;5092881;28;20020;-83
2022/08/25 11:15:25;;;;;;;25.67;7.88;;;28.10;85.50;;;;;;5090868;28;20491;-83
2022/08/25 11:17:53;;;;;;;16.20;7.30;;;28.10;84.50;;;;;;5093540;28;20099;-83
2022/08/25 11:20:23;;;;;;;18.77;8.95;;;28.20;81.80;;;;;;5111855;28;20028;-83
2022/08/25 11:23:07;;;;;;;24.58;8.00;;;28.10;83.90;;;;;;5113185;28;20031;-83
2022/08/25 11:25:39;;;;;;;18.23;7.00;;;28.10;84.60;;;;;;5111552;28;20016;-82
2022/08/25 11:28:20;;;;;;;22.80;8.45;;;28.10;79.80;;;;;;5102057;27;20039;-83
2022/08/25 11:30:46;;;;;;;24.83;6.97;;;28.00;75.40;;;;;;5116711;27;20019;-84
2022/08/25 11:33:16;;;;;;;23.30;7.15;;;28.00;74.90;;;;;;5132152;27;20043;-83
2022/08/25 11:35:46;;;;;;;20.08;6.70;;;28.10;75.10;;;;;;5125125;27;20188;-83
2022/08/25 11:38:23;;;;;;;25.50;6.85;;;28.30;76.00;;;;;;5132308;27;20035;-84
2022/08/25 11:40:58;;;;;;;14.82;7.43;;;28.30;74.30;;;;;;5132363;27;20023;-84
2022/08/25 11:43:50;;;;;;;31.00;7.80;;;28.40;76.00;;;;;;5131641;27;20035;-84
2022/08/25 11:46:27;;;;;;;20.45;7.32;;;28.50;73.90;;;;;;5129758;27;20404;-84
2022/08/25 11:49:12;;;;;;;21.90;7.60;;;28.50;72.20;;;;;;5117409;27;20024;-84
2022/08/25 11:51:46;;;;;;;19.35;7.40;;;28.60;69.00;;;;;;5131049;27;20050;-84
2022/08/25 11:54:21;;;;;;;22.30;7.15;;;28.60;66.20;;;;;;5132265;27;20031;-85
2022/08/25 11:57:01;;;;;;;21.80;7.13;;;28.60;69.30;;;;;;5131462;27;20031;-85
2022/08/25 11:59:48;;;;;;;27.60;6.40;;;28.50;68.40;;;;;;5132009;27;20388;-85
2022/08/25 12:02:34;;;;;;;22.27;6.68;;;28.60;67.50;;;;;;5120261;27;20107;-84
2022/08/25 12:05:00;;;;;;;16.77;5.85;;;28.70;64.80;;;;;;5130747;28;20035;-85
2022/08/25 12:10:57;;;;;;;22.30;7.68;;;28.80;64.20;;;;;;5125002;27;20029;-84
2022/08/25 12:13:49;;;;;;;22.38;8.25;;;28.80;65.60;;;;;;5129456;27;20184;-84
2022/08/25 12:16:59;;;;;;;26.17;6.35;;;28.90;64.20;;;;;;5131770;27;20035;-83
2022/08/25 12:19:34;;;;;;;22.13;6.47;;;29.00;61.80;;;;;;5105425;27;20032;-84
2022/08/25 12:22:00;;;;;;;21.15;5.80;;;29.10;60.20;;;;;;5131839;27;20094;-81
2022/08/25 12:24:43;;;;;;;20.42;6.53;;;29.00;58.70;;;;;;5124060;27;20453;-83
2022/08/25 12:27:24;;;;;;;20.20;5.93;;;29.00;57.90;;;;;;5132062;27;20563;-83
2022/08/25 12:30:19;;;;;;;24.17;6.38;;;29.20;59.20;;;;;;5131324;27;20023;-84
2022/08/25 12:33:18;;;;;;;20.58;6.10;;;29.20;59.70;;;;;;5116506;27;20062;-84
2022/08/25 12:35:54;;;;;;;17.55;4.97;;;29.20;59.50;;;;;;5120627;27;20031;-84
2022/08/25 12:38:36;;;;;;;21.48;6.68;;;29.30;59.20;;;;;;5132016;27;20079;-84
2022/08/25 12:41:06;;;;;;;25.13;6.78;;;29.20;55.80;;;;;;5131446;27;20375;-84
2022/08/25 12:43:35;;;;;;;20.05;5.13;;;29.30;56.50;;;;;;5131340;27;20027;-85
2022/08/25 12:46:19;;;;;;;15.88;4.72;;;29.20;55.50;;;;;;5129990;27;20472;-84
2022/08/25 12:48:57;;;;;;;20.02;4.75;;;29.20;55.70;;;;;;5119787;27;20476;-85
2022/08/25 12:51:37;;;;;;;23.45;4.25;;;29.30;54.90;;;;;;5131932;27;20023;-85
2022/08/25 12:54:37;;;;;;;17.35;4.72;;;29.20;53.20;;;;;;5130983;27;20172;-85
2022/08/25 12:57:30;;;;;;;14.15;4.35;;;29.30;52.80;;;;;;5129035;27;20027;-84
2022/08/25 13:00:00;;;;;;;16.15;4.00;;;29.30;52.80;;;;;;5123264;27;20032;-84
2022/08/25 13:02:55;;;;;;;16.15;5.35;;;29.40;51.60;;;;;;5134893;27;20028;-83
2022/08/25 13:05:49;;;;;;;15.40;4.43;;;29.30;50.80;;;;;;5111215;27;20098;-84
2022/08/25 13:09:09;;;;;;;18.02;4.70;;;29.30;52.40;;;;;;5121389;27;20088;-81